Aviation Digital Data Service (ADDS)

Output produced by METARs form (1615 UTC 29 March 2015)
found at http://www.aviationweather.gov/adds/metars/
 
KBMI 291130Z 2912/3012 18016G22KT P6SM BKN200 
     FM291500 18025G35KT 6SM SHRA BKN035 
     FM292200 22018G25KT P6SM BKN040 
     FM300400 30012KT P6SM SCT050